Time;durP1;ratioP1;P1;durP2;ratioP2;P2;SDS_P1;SDS_P2;PMS_P1;PMS_P2;Temp;Humidity;BMP_temperature;BMP_pressure;BME280_temperature;BME280_humidity;BME280_pressure;Samples;Min_cycle;Max_cycle;Signal;HPM_P1;HPM_P2
2023/06/06 00:01:19;;;;;;;10.88;6.10;;;;;;;16.51;100.00;100378.78;5586874;31;34463;-68
2023/06/06 00:04:22;;;;;;;10.20;6.80;;;;;;;16.52;100.00;100375.91;5577841;31;33555;-68
2023/06/06 00:07:25;;;;;;;11.15;6.37;;;;;;;16.50;100.00;100375.31;5574248;31;34759;-67
2023/06/06 00:10:28;;;;;;;11.68;6.80;;;;;;;16.49;100.00;100378.19;5575648;31;33774;-68
2023/06/06 00:13:32;;;;;;;14.18;6.62;;;;;;;16.52;100.00;100377.75;5577312;31;34012;-67
2023/06/06 00:16:35;;;;;;;9.85;6.20;;;;;;;16.59;100.00;100383.16;5577415;31;34481;-68
2023/06/06 00:19:40;;;;;;;9.25;6.32;;;;;;;16.57;100.00;100382.50;5575526;31;33959;-68
2023/06/06 00:22:43;;;;;;;10.90;6.53;;;;;;;16.66;100.00;100384.78;5586660;31;33356;-68
2023/06/06 00:25:47;;;;;;;8.05;6.20;;;;;;;16.77;100.00;100386.03;5585956;31;35172;-68
2023/06/06 00:28:50;;;;;;;12.55;6.55;;;;;;;16.77;100.00;100391.38;5586628;31;33898;-69
2023/06/06 00:31:53;;;;;;;10.50;6.62;;;;;;;16.76;100.00;100379.00;5586536;31;33624;-68
2023/06/06 00:34:56;;;;;;;17.90;6.78;;;;;;;16.69;100.00;100378.22;5585664;31;33832;-67
2023/06/06 00:37:59;;;;;;;13.90;6.75;;;;;;;16.56;100.00;100410.31;5586817;31;33559;-68
2023/06/06 00:41:02;;;;;;;12.55;7.90;;;;;;;16.46;100.00;100416.06;5586579;31;33710;-68
2023/06/06 00:44:05;;;;;;;13.23;7.87;;;;;;;16.47;100.00;100412.38;5585997;31;33945;-69
2023/06/06 00:47:09;;;;;;;11.65;7.62;;;;;;;16.61;100.00;100389.94;5586351;31;33847;-67
2023/06/06 00:50:14;;;;;;;10.95;7.10;;;;;;;16.51;100.00;100409.06;5586613;31;33907;-67
2023/06/06 00:53:20;;;;;;;17.23;8.20;;;;;;;16.46;100.00;100408.88;5585070;31;33660;-67
2023/06/06 00:56:28;;;;;;;11.95;6.85;;;;;;;16.51;100.00;100409.06;5586338;31;33889;-66
2023/06/06 00:59:31;;;;;;;11.27;7.78;;;;;;;16.57;100.00;100395.88;5586395;31;33891;-66
2023/06/06 01:02:37;;;;;;;11.05;6.90;;;;;;;16.38;100.00;100384.16;5586289;31;34548;-66
2023/06/06 01:05:40;;;;;;;11.60;7.65;;;;;;;16.24;100.00;100385.16;5585216;31;33818;-66
2023/06/06 01:08:43;;;;;;;11.20;7.37;;;;;;;16.21;100.00;100386.41;5586110;31;33732;-66
2023/06/06 01:12:06;;;;;;;12.43;7.75;;;;;;;16.07;100.00;100409.63;5585966;31;33622;-67
2023/06/06 01:15:24;;;;;;;23.48;10.30;;;;;;;16.11;100.00;100417.28;5585973;31;34010;-68
2023/06/06 01:18:31;;;;;;;17.77;7.43;;;;;;;16.19;100.00;100380.44;5585765;31;34011;-68
2023/06/06 01:21:41;;;;;;;11.45;7.45;;;;;;;16.01;100.00;100386.37;5585847;31;33874;-66
2023/06/06 01:24:45;;;;;;;13.27;8.45;;;;;;;15.89;100.00;100381.81;5585648;31;34111;-66
2023/06/06 01:27:53;;;;;;;11.40;7.65;;;;;;;15.91;100.00;100380.59;5585526;31;34356;-66
2023/06/06 01:30:56;;;;;;;12.13;7.65;;;;;;;15.97;100.00;100384.31;5584727;31;33766;-65
2023/06/06 01:34:11;;;;;;;14.20;7.50;;;;;;;15.92;100.00;100384.91;5585579;31;33623;-65
2023/06/06 01:37:32;;;;;;;11.05;7.60;;;;;;;15.87;100.00;100394.56;5584694;31;34514;-65
2023/06/06 01:40:37;;;;;;;12.45;8.35;;;;;;;15.89;100.00;100387.97;5585487;31;33762;-65
2023/06/06 01:43:44;;;;;;;12.93;8.38;;;;;;;15.94;100.00;100382.84;5585643;31;34362;-65
2023/06/06 01:46:47;;;;;;;14.70;8.32;;;;;;;15.94;100.00;100379.34;5585362;31;33777;-65
2023/06/06 01:49:51;;;;;;;12.07;8.52;;;;;;;15.97;100.00;100382.47;5585014;31;34157;-65
2023/06/06 01:52:55;;;;;;;10.80;7.95;;;;;;;16.01;100.00;100388.22;5585254;31;34616;-65
2023/06/06 01:56:00;;;;;;;12.95;8.70;;;;;;;15.98;100.00;100377.91;5585239;31;33979;-65
2023/06/06 01:59:03;;;;;;;12.85;8.23;;;;;;;15.98;100.00;100377.91;5585468;31;33873;-65
2023/06/06 02:02:06;;;;;;;12.40;8.02;;;;;;;15.94;100.00;100387.38;5585043;31;34841;-65
2023/06/06 02:05:12;;;;;;;14.10;8.60;;;;;;;15.86;100.00;100382.22;5586483;31;33767;-65
2023/06/06 02:08:14;;;;;;;11.57;8.32;;;;;;;15.86;100.00;100388.41;5587870;31;33866;-66
2023/06/06 02:11:18;;;;;;;11.02;8.23;;;;;;;15.89;100.00;100381.81;5587810;31;33935;-65
2023/06/06 02:14:20;;;;;;;11.93;7.60;;;;;;;15.94;100.00;100384.69;5587837;31;33711;-66
2023/06/06 02:17:24;;;;;;;10.80;7.65;;;;;;;15.90;100.00;100373.59;5587956;31;34552;-66
2023/06/06 02:20:27;;;;;;;7.85;6.47;;;;;;;15.92;100.00;100386.78;5587579;31;34163;-65
2023/06/06 02:23:30;;;;;;;10.30;7.07;;;;;;;15.90;100.00;100383.47;5588075;31;33714;-65
2023/06/06 02:26:35;;;;;;;10.57;7.20;;;;;;;15.89;100.00;100379.97;5587739;31;34020;-66
2023/06/06 02:29:38;;;;;;;9.45;6.90;;;;;;;15.94;100.00;100379.34;5587832;31;34508;-65
2023/06/06 02:32:41;;;;;;;12.07;6.82;;;;;;;15.94;100.00;100380.19;5587892;31;34289;-66
2023/06/06 02:35:44;;;;;;;9.52;7.03;;;;;;;15.91;100.00;100379.75;5587812;31;34570;-66
2023/06/06 02:38:47;;;;;;;9.30;7.28;;;;;;;15.94;100.00;100382.03;5587807;31;33715;-66
2023/06/06 02:41:50;;;;;;;12.88;7.57;;;;;;;15.92;100.00;100378.75;5587826;31;33959;-66
2023/06/06 02:44:54;;;;;;;11.20;7.80;;;;;;;15.94;100.00;100379.34;5587603;31;33784;-66
2023/06/06 02:47:57;;;;;;;13.60;7.80;;;;;;;15.96;100.00;100379.97;5587471;31;33523;-66
2023/06/06 02:51:00;;;;;;;11.10;7.35;;;;;;;15.97;100.00;100381.62;5587432;31;33985;-66
2023/06/06 02:54:03;;;;;;;10.55;7.40;;;;;;;15.93;100.00;100383.03;5587512;31;34167;-66
2023/06/06 02:57:06;;;;;;;8.98;7.28;;;;;;;15.91;100.00;100380.59;5587898;31;33583;-66
2023/06/06 03:00:11;;;;;;;9.50;7.25;;;;;;;15.90;100.00;100386.13;5587501;31;33802;-66
2023/06/06 03:03:14;;;;;;;9.50;7.40;;;;;;;16.00;100.00;100406.13;5587409;31;33967;-66
2023/06/06 03:06:20;;;;;;;10.48;7.22;;;;;;;15.94;100.00;100401.59;5587409;31;33680;-66
2023/06/06 03:09:24;;;;;;;8.48;6.55;;;;;;;16.01;100.00;100402.44;5587328;31;33933;-66
2023/06/06 03:12:28;;;;;;;11.95;7.15;;;;;;;15.96;100.00;100423.63;5586434;31;34899;-66
2023/06/06 03:15:32;;;;;;;9.60;7.05;;;;;;;15.87;100.00;100419.47;5587143;31;34691;-66
2023/06/06 03:18:36;;;;;;;11.25;7.20;;;;;;;15.92;100.00;100408.19;5587287;31;34579;-66
2023/06/06 03:21:41;;;;;;;9.82;6.78;;;;;;;15.80;100.00;100404.41;5586327;31;35398;-66
2023/06/06 03:24:49;;;;;;;14.32;7.75;;;;;;;15.77;100.00;100408.34;5587235;31;33762;-66
2023/06/06 03:27:53;;;;;;;13.00;7.30;;;;;;;15.74;100.00;100400.69;5586314;31;34677;-66
2023/06/06 03:30:56;;;;;;;10.85;7.70;;;;;;;15.76;100.00;100405.84;5586326;31;34559;-67
2023/06/06 03:34:00;;;;;;;10.52;7.12;;;;;;;15.77;100.00;100412.84;5587246;31;33552;-67
2023/06/06 03:37:03;;;;;;;11.43;7.18;;;;;;;15.80;100.00;100418.62;5587214;31;34311;-67
2023/06/06 03:40:08;;;;;;;15.10;7.20;;;;;;;15.79;100.00;100427.66;5587303;31;33776;-68
2023/06/06 03:43:11;;;;;;;11.10;7.07;;;;;;;15.80;100.00;100436.53;5587115;31;33577;-68
2023/06/06 03:46:15;;;;;;;18.50;7.15;;;;;;;15.83;100.00;100447.63;5587056;31;34601;-66
2023/06/06 03:49:19;;;;;;;11.93;7.30;;;;;;;15.83;100.00;100442.28;5586936;31;34386;-67
2023/06/06 03:52:22;;;;;;;8.13;6.43;;;;;;;15.83;100.00;100442.28;5587243;31;33843;-66
2023/06/06 03:55:25;;;;;;;9.80;7.03;;;;;;;15.83;100.00;100433.47;5586916;31;33931;-66
2023/06/06 03:58:29;;;;;;;11.57;7.35;;;;;;;15.80;100.00;100433.84;5587361;31;34907;-66
2023/06/06 04:01:33;;;;;;;9.13;7.03;;;;;;;15.76;100.00;100436.09;5586959;31;34428;-66
2023/06/06 04:04:36;;;;;;;12.05;7.93;;;;;;;15.78;100.00;100435.91;5586836;31;33731;-66
2023/06/06 04:07:39;;;;;;;9.82;7.65;;;;;;;15.75;100.00;100436.28;5586842;31;34393;-66
2023/06/06 04:10:43;;;;;;;14.23;7.32;;;;;;;15.78;100.00;100443.94;5586874;31;33963;-66
2023/06/06 04:13:50;;;;;;;12.13;7.20;;;;;;;15.79;100.00;100437.53;5587154;31;34508;-67
2023/06/06 04:16:55;;;;;;;9.50;7.90;;;;;;;15.79;100.00;100435.69;5586966;31;34324;-67
2023/06/06 04:20:00;;;;;;;14.73;7.47;;;;;;;15.76;100.00;100437.94;5586795;31;35374;-66
2023/06/06 04:23:03;;;;;;;11.63;8.50;;;;;;;15.73;100.00;100431.16;5586680;31;33967;-67
2023/06/06 04:26:10;;;;;;;10.77;8.45;;;;;;;15.79;100.00;100432.19;5586710;31;34513;-67
2023/06/06 04:29:13;;;;;;;12.57;8.80;;;;;;;15.78;100.00;100422.53;5585727;31;33954;-67
2023/06/06 04:32:18;;;;;;;10.77;7.93;;;;;;;15.78;100.00;100411.84;5586500;31;34515;-65
2023/06/06 04:35:22;;;;;;;14.18;9.23;;;;;;;15.79;100.00;100416.97;5586268;31;33775;-65
2023/06/06 04:38:29;;;;;;;13.70;9.30;;;;;;;15.85;100.00;100418.84;5586412;31;34436;-67
2023/06/06 04:41:33;;;;;;;11.98;9.20;;;;;;;15.91;100.00;100412.69;5586474;31;33585;-66
2023/06/06 04:44:41;;;;;;;13.82;9.00;;;;;;;15.98;100.00;100415.38;5586049;31;34194;-67
2023/06/06 04:47:45;;;;;;;12.68;9.10;;;;;;;15.99;100.00;100403.66;5570776;31;34310;-67
2023/06/06 04:50:49;;;;;;;14.15;8.98;;;;;;;16.02;100.00;100397.91;5581883;31;34101;-67
2023/06/06 04:53:53;;;;;;;11.40;8.68;;;;;;;16.16;100.00;100404.09;5580414;31;34087;-67
2023/06/06 04:56:57;;;;;;;18.60;8.82;;;;;;;16.19;100.00;100403.69;5584960;31;33999;-66
2023/06/06 05:00:01;;;;;;;17.08;8.85;;;;;;;16.23;100.00;100404.94;5576478;31;33477;-66
2023/06/06 05:03:04;;;;;;;14.00;9.23;;;;;;;16.22;100.00;100395.25;5580829;31;34618;-66
2023/06/06 05:06:08;;;;;;;12.05;8.93;;;;;;;16.25;100.00;100400.22;5585971;31;33629;-66
2023/06/06 05:09:12;;;;;;;14.68;10.45;;;;;;;16.23;100.00;100402.25;5579487;31;33579;-67
2023/06/06 05:12:19;;;;;;;13.93;9.20;;;;;;;16.34;100.00;100401.66;5581501;31;34442;-67
2023/06/06 05:15:23;;;;;;;10.95;9.00;;;;;;;16.50;100.00;100403.94;5584063;31;34884;-67
2023/06/06 05:18:30;;;;;;;14.70;9.45;;;;;;;16.55;100.00;100409.50;5584615;31;34515;-67
2023/06/06 05:21:34;;;;;;;13.75;9.23;;;;;;;16.67;100.00;100407.88;5577318;31;33600;-66
2023/06/06 05:24:38;;;;;;;11.73;9.23;;;;;;;16.67;100.00;100413.22;5582354;31;34052;-66
2023/06/06 05:27:43;;;;;;;12.70;9.05;;;;;;;16.57;100.00;100403.94;5582374;31;34500;-67
2023/06/06 05:30:47;;;;;;;10.48;8.73;;;;;;;16.60;100.00;100403.56;5583417;31;33736;-67
2023/06/06 05:33:51;;;;;;;14.48;9.23;;;;;;;16.75;100.00;100404.97;5582226;31;34579;-67
2023/06/06 05:36:54;;;;;;;14.98;9.57;;;;;;;16.63;100.00;100406.66;5571328;31;33858;-67
2023/06/06 05:39:59;;;;;;;14.75;9.80;;;;;;;16.81;100.00;100411.38;5580883;31;34544;-67
2023/06/06 05:43:03;;;;;;;11.77;9.32;;;;;;;16.82;100.00;100408.50;5578324;31;34490;-67
2023/06/06 05:46:06;;;;;;;15.77;9.27;;;;;;;16.85;100.00;100420.63;5576176;31;34357;-67
2023/06/06 05:49:10;;;;;;;13.68;9.57;;;;;;;16.83;100.00;100417.34;5566509;32;33786;-67
2023/06/06 05:52:12;;;;;;;15.85;9.65;;;;;;;16.85;100.00;100423.31;5572304;31;33779;-67
2023/06/06 05:55:30;;;;;;;16.33;10.25;;;;;;;16.86;100.00;100420.44;5573155;31;34107;-67
2023/06/06 05:58:33;;;;;;;18.77;12.93;;;;;;;16.95;100.00;100418.34;5578456;31;33827;-67
2023/06/06 06:01:39;;;;;;;12.70;9.07;;;;;;;17.01;100.00;100422.91;5587018;31;34472;-67
2023/06/06 06:04:45;;;;;;;13.45;8.80;;;;;;;16.98;100.00;100423.31;5580293;31;33779;-67
2023/06/06 06:07:52;;;;;;;14.25;9.23;;;;;;;17.00;100.00;100426.59;5575577;31;34299;-67
2023/06/06 06:10:55;;;;;;;12.80;9.20;;;;;;;16.87;100.00;100424.78;5576026;31;33642;-67
2023/06/06 06:13:58;;;;;;;13.55;10.02;;;;;;;16.91;100.00;100430.53;5578553;31;34543;-67
2023/06/06 06:17:02;;;;;;;17.20;9.30;;;;;;;16.89;100.00;100438.78;5584357;31;33990;-67
2023/06/06 06:20:08;;;;;;;14.27;10.35;;;;;;;16.97;100.00;100428.88;5577668;31;33790;-67
2023/06/06 06:23:13;;;;;;;15.10;9.98;;;;;;;17.25;100.00;100435.62;5573750;31;34617;-67
2023/06/06 06:26:17;;;;;;;14.38;10.13;;;;;;;17.33;100.00;100435.41;5583351;31;33816;-67
2023/06/06 06:29:20;;;;;;;16.37;10.95;;;;;;;17.39;100.00;100439.94;5567530;31;34326;-67
2023/06/06 06:32:24;;;;;;;13.98;9.63;;;;;;;17.38;100.00;100445.50;5567531;32;33779;-67
2023/06/06 06:35:27;;;;;;;16.73;11.57;;;;;;;17.28;100.00;100443.25;5567650;32;33307;-67
2023/06/06 06:38:32;;;;;;;15.68;11.60;;;;;;;17.39;100.00;100441.78;5567686;32;33566;-68
2023/06/06 06:41:36;;;;;;;16.45;11.32;;;;;;;17.41;100.00;100438.91;5570481;31;34270;-67
2023/06/06 06:44:40;;;;;;;15.40;11.55;;;;;;;17.70;100.00;100451.84;5582009;31;34075;-68
2023/06/06 06:47:44;;;;;;;12.73;10.48;;;;;;;17.67;100.00;100455.75;5580644;31;32622;-68
2023/06/06 06:50:48;;;;;;;14.80;11.02;;;;;;;17.65;100.00;100457.00;5575420;31;34627;-68
2023/06/06 06:53:52;;;;;;;16.40;10.38;;;;;;;17.63;100.00;100459.91;5584119;31;33655;-68
2023/06/06 06:56:57;;;;;;;16.12;12.20;;;;;;;17.86;100.00;100459.41;5587116;31;34155;-69
2023/06/06 07:00:12;;;;;;;16.08;11.85;;;;;;;17.57;100.00;100460.69;5583533;31;33651;-69
2023/06/06 07:03:15;;;;;;;18.15;12.45;;;;;;;17.35;100.00;100457.47;5584903;31;34070;-69
2023/06/06 07:06:20;;;;;;;17.50;12.70;;;;;;;17.52;100.00;100460.53;5568418;31;35037;-69
2023/06/06 07:09:23;;;;;;;17.20;13.50;;;;;;;17.44;100.00;100459.94;5567527;32;34804;-69
2023/06/06 07:12:26;;;;;;;17.50;14.07;;;;;;;17.43;100.00;100460.97;5573572;31;33724;-69
2023/06/06 07:15:28;;;;;;;18.77;13.60;;;;;;;17.65;100.00;100460.53;5580762;31;33739;-68
2023/06/06 07:18:32;;;;;;;24.40;14.60;;;;;;;17.65;100.00;100460.53;5574651;31;33882;-69
2023/06/06 07:21:36;;;;;;;21.10;14.98;;;;;;;17.77;100.00;100464.19;5586754;31;35195;-69
2023/06/06 07:24:41;;;;;;;23.60;16.00;;;;;;;17.72;100.00;100463.16;5584935;31;33845;-69
2023/06/06 07:27:43;;;;;;;22.27;13.65;;;;;;;17.92;100.00;100458.53;5582465;31;34342;-68
2023/06/06 07:30:47;;;;;;;16.25;12.85;;;;;;;18.04;100.00;100461.38;5571683;31;33757;-67
2023/06/06 07:33:49;;;;;;;20.62;13.20;;;;;;;18.21;100.00;100463.34;5567721;32;34527;-67
2023/06/06 07:36:53;;;;;;;19.05;12.65;;;;;;;18.00;100.00;100466.38;5573828;31;33662;-67
2023/06/06 07:39:56;;;;;;;16.27;12.65;;;;;;;18.16;100.00;100462.34;5585585;31;33978;-67
2023/06/06 07:43:01;;;;;;;18.95;13.80;;;;;;;18.08;100.00;100466.12;5586046;31;34260;-68
2023/06/06 07:46:05;;;;;;;21.50;14.95;;;;;;;17.93;100.00;100465.56;5586336;31;33724;-67
2023/06/06 07:49:10;;;;;;;28.45;15.90;;;;;;;17.79;100.00;100459.44;5582023;31;152108;-71
2023/06/06 07:52:12;;;;;;;22.08;15.18;;;;;;;17.73;100.00;100462.12;5586847;31;33828;-71
2023/06/06 07:55:16;;;;;;;24.25;15.88;;;;;;;17.52;100.00;100457.87;5586846;31;33909;-70
2023/06/06 07:58:25;;;;;;;21.65;17.08;;;;;;;17.16;100.00;100455.66;5586354;31;34257;-68
2023/06/06 08:01:29;;;;;;;25.10;18.47;;;;;;;16.97;100.00;100459.19;5585515;31;33873;-69
2023/06/06 08:04:32;;;;;;;26.50;19.08;;;;;;;16.95;100.00;100456.72;5585748;31;34514;-70
2023/06/06 08:07:38;;;;;;;25.77;19.12;;;;;;;17.02;100.00;100456.72;5586079;31;33802;-68
2023/06/06 08:10:41;;;;;;;29.12;19.92;;;;;;;17.00;100.00;100455.25;5586634;31;33986;-68
2023/06/06 08:13:44;;;;;;;35.85;22.23;;;;;;;16.91;100.00;100452.78;5587058;31;34148;-68
2023/06/06 08:16:47;;;;;;;28.85;21.75;;;;;;;17.06;100.00;100449.06;5586763;31;33632;-68
2023/06/06 08:19:50;;;;;;;29.27;22.10;;;;;;;17.05;100.00;100445.56;5586377;31;33938;-68
2023/06/06 08:22:53;;;;;;;28.30;20.70;;;;;;;17.04;100.00;100443.91;5585837;31;33850;-67
2023/06/06 08:25:57;;;;;;;29.75;21.52;;;;;;;17.18;100.00;100450.09;5586570;31;34358;-68
2023/06/06 08:29:00;;;;;;;29.63;23.00;;;;;;;17.24;100.00;100455.44;5586319;31;35306;-68
2023/06/06 08:32:06;;;;;;;30.00;21.00;;;;;;;17.42;100.00;100449.44;5585770;31;34593;-68
2023/06/06 08:35:09;;;;;;;31.02;22.55;;;;;;;17.36;100.00;100450.25;5586248;31;34527;-68
2023/06/06 08:38:13;;;;;;;32.10;22.37;;;;;;;17.34;100.00;100447.78;5586227;31;33885;-68
2023/06/06 08:41:17;;;;;;;32.38;22.77;;;;;;;17.55;100.00;100445.88;5586316;31;33605;-67
2023/06/06 08:44:23;;;;;;;31.25;21.73;;;;;;;17.95;100.00;100451.94;5586429;31;33838;-69
2023/06/06 08:47:29;;;;;;;24.50;20.98;;;;;;;18.48;100.00;100450.59;5585019;31;34581;-67
2023/06/06 08:50:34;;;;;;;25.67;21.05;;;;;;;19.04;100.00;100449.75;5579810;31;33908;-69
2023/06/06 08:53:38;;;;;;;30.88;22.13;;;;;;;19.32;100.00;100449.25;5586348;31;34322;-67
2023/06/06 08:56:43;;;;;;;22.75;18.98;;;;;;;19.22;100.00;100448.97;5586114;31;33754;-69
2023/06/06 08:59:47;;;;;;;21.73;19.23;;;;;;;18.99;100.00;100447.72;5585380;31;33992;-68
2023/06/06 09:02:54;;;;;;;22.85;18.30;;;;;;;19.02;100.00;100444.59;5579336;31;34051;-68
2023/06/06 09:06:01;;;;;;;24.00;17.55;;;;;;;19.41;100.00;100437.16;5566610;32;33665;-68
2023/06/06 09:09:07;;;;;;;20.80;17.02;;;;;;;20.65;100.00;100447.34;5566277;32;33777;-68
2023/06/06 09:12:11;;;;;;;21.27;17.20;;;;;;;21.36;100.00;100439.06;5566257;31;33834;-68
2023/06/06 09:15:14;;;;;;;16.95;14.87;;;;;;;21.80;100.00;100440.25;5568073;32;33847;-69
2023/06/06 09:18:19;;;;;;;20.37;14.45;;;;;;;21.92;100.00;100440.22;5568310;32;33547;-68
2023/06/06 09:21:22;;;;;;;18.75;13.95;;;;;;;22.14;100.00;100438.50;5567115;32;33528;-68
2023/06/06 09:24:26;;;;;;;16.08;14.32;;;;;;;22.62;100.00;100438.00;5566252;32;33821;-69
2023/06/06 09:27:30;;;;;;;16.20;14.15;;;;;;;23.44;100.00;100443.59;5566471;32;33462;-67
2023/06/06 09:30:35;;;;;;;17.37;13.30;;;;;;;23.66;100.00;100440.94;5567140;32;33676;-69
2023/06/06 09:33:40;;;;;;;19.52;15.40;;;;;;;23.37;100.00;100445.69;5567345;32;33879;-67
2023/06/06 09:36:44;;;;;;;16.27;14.50;;;;;;;23.18;100.00;100439.75;5568146;32;33640;-68
2023/06/06 09:40:11;;;;;;;16.73;14.05;;;;;;;23.03;100.00;100444.09;5567683;32;34430;-68
2023/06/06 09:43:18;;;;;;;17.17;15.07;;;;;;;22.74;100.00;100441.50;5559372;31;33834;-68
2023/06/06 09:46:20;;;;;;;19.35;15.48;;;;;;;22.67;100.00;100440.81;5568232;32;34382;-67
2023/06/06 09:49:24;;;;;;;18.75;15.98;;;;;;;22.82;100.00;100438.38;5568123;32;34531;-68
2023/06/06 09:52:30;;;;;;;18.77;16.40;;;;;;;22.66;100.00;100438.34;5572829;32;33287;-69
2023/06/06 09:55:33;;;;;;;20.92;16.50;;;;;;;22.32;100.00;100430.19;5596204;31;33279;-68
2023/06/06 09:58:39;;;;;;;21.30;16.92;;;;;;;22.24;100.00;100432.47;5593752;31;33810;-68
2023/06/06 10:01:48;;;;;;;20.40;18.25;;;;;;;21.85;100.00;100439.53;5590838;31;34024;-68
2023/06/06 10:04:53;;;;;;;28.77;19.27;;;;;;;21.94;100.00;100427.31;5587589;31;34509;-69
2023/06/06 10:07:56;;;;;;;21.27;17.37;;;;;;;23.23;100.00;100433.59;5586719;31;34677;-69
2023/06/06 10:11:02;;;;;;;20.60;17.55;;;;;;;23.26;100.00;100420.34;5591750;31;34278;-70
2023/06/06 10:14:08;;;;;;;18.45;16.45;;;;;;;23.65;100.00;100421.16;5587905;31;34247;-71
2023/06/06 10:17:13;;;;;;;17.70;15.75;;;;;;;23.91;100.00;100410.63;5576193;31;32476;-68
2023/06/06 10:20:16;;;;;;;20.37;15.88;;;;;;;23.63;100.00;100417.88;5567238;31;33841;-68
2023/06/06 10:23:20;;;;;;;21.90;17.23;;;;;;;23.55;100.00;100420.22;5568068;32;34354;-67
2023/06/06 10:26:41;;;;;;;19.85;15.88;;;;;;;23.46;100.00;100416.31;5566337;32;34993;-69
2023/06/06 10:29:54;;;;;;;17.17;14.07;;;;;;;23.81;100.00;100414.03;5567460;32;33871;-68
2023/06/06 10:33:41;;;;;;;17.80;14.80;;;;;;;24.42;100.00;100407.38;5567636;32;33959;-69
2023/06/06 10:36:44;;;;;;;19.02;14.40;;;;;;;23.88;100.00;100405.69;5586104;31;34504;-68
2023/06/06 10:39:59;;;;;;;14.23;12.75;;;;;;;24.00;100.00;100398.25;5587195;31;35087;-69
2023/06/06 10:43:03;;;;;;;13.65;11.80;;;;;;;23.46;100.00;100406.31;5587252;31;34489;-67
2023/06/06 10:46:06;;;;;;;12.30;10.10;;;;;;;24.53;100.00;100397.44;5587301;31;34551;-68
2023/06/06 10:49:10;;;;;;;12.63;9.48;;;;;;;25.16;100.00;100390.28;5586950;31;33708;-68
2023/06/06 10:52:13;;;;;;;10.13;8.77;;;;;;;24.97;100.00;100388.00;5587388;31;33957;-67
2023/06/06 10:55:22;;;;;;;9.93;8.57;;;;;;;23.86;100.00;100392.44;5587352;31;33892;-67
2023/06/06 10:58:31;;;;;;;10.43;9.10;;;;;;;23.22;100.00;100384.03;5586522;31;34841;-67
2023/06/06 11:01:36;;;;;;;10.93;8.77;;;;;;;22.36;100.00;100384.59;5570622;31;34496;-67
2023/06/06 11:04:39;;;;;;;7.18;5.70;;;;;;;21.76;100.00;100387.78;5568481;31;34754;-67
2023/06/06 11:07:49;;;;;;;8.98;5.85;;;;;;;21.10;100.00;100375.63;5576340;31;34593;-66
2023/06/06 11:11:27;;;;;;;7.90;5.68;;;;;;;20.96;100.00;100382.28;5566055;32;34429;-66
2023/06/06 11:15:07;;;;;;;6.95;4.87;;;;;;;21.21;100.00;100400.94;5567437;32;34546;-67
2023/06/06 11:18:10;;;;;;;7.90;5.20;;;;;;;20.93;100.00;100388.16;5567332;32;34582;-66
2023/06/06 11:21:18;;;;;;;7.43;5.10;;;;;;;20.81;100.00;100392.75;5569880;31;33687;-67
2023/06/06 11:24:21;;;;;;;6.55;3.80;;;;;;;20.55;100.00;100401.28;5586670;31;34051;-67
2023/06/06 11:27:26;;;;;;;6.60;3.42;;;;;;;19.87;100.00;100415.09;5585999;31;33618;-66
2023/06/06 11:30:36;;;;;;;5.97;3.67;;;;;;;19.39;100.00;100412.34;5585259;31;34490;-66
2023/06/06 11:33:40;;;;;;;5.47;3.50;;;;;;;19.21;100.00;100404.28;5587167;31;33737;-65
2023/06/06 11:36:44;;;;;;;6.12;3.95;;;;;;;19.27;100.00;100419.50;5585936;31;35157;-66
2023/06/06 11:39:47;;;;;;;7.35;4.20;;;;;;;19.18;100.00;100418.16;5585848;31;34535;-65
2023/06/06 11:42:50;;;;;;;8.52;4.40;;;;;;;19.10;100.00;100416.59;5577735;31;33478;-66
2023/06/06 11:46:15;;;;;;;9.02;5.07;;;;;;;18.88;100.00;100404.62;5567169;32;35286;-65
2023/06/06 11:49:19;;;;;;;7.12;5.12;;;;;;;18.86;100.00;100406.69;5567101;32;34111;-65
2023/06/06 11:52:23;;;;;;;12.75;5.45;;;;;;;18.95;100.00;100408.06;5567622;32;33659;-66
2023/06/06 11:55:37;;;;;;;11.93;5.78;;;;;;;19.03;100.00;100410.44;5566539;32;34445;-65
2023/06/06 11:58:41;;;;;;;11.40;5.90;;;;;;;19.10;100.00;100416.59;5567156;32;33821;-66
2023/06/06 12:01:56;;;;;;;9.85;6.50;;;;;;;19.05;100.00;100416.44;5567158;32;33788;-65
2023/06/06 12:05:03;;;;;;;9.00;6.55;;;;;;;19.05;100.00;100417.25;5565927;32;34525;-65
2023/06/06 12:08:07;;;;;;;11.18;6.15;;;;;;;18.91;100.00;100420.28;5566214;32;33919;-66
2023/06/06 12:11:23;;;;;;;8.75;6.78;;;;;;;18.86;100.00;100420.97;5566803;32;33699;-67
2023/06/06 12:14:29;;;;;;;9.23;7.20;;;;;;;18.79;100.00;100419.34;5567081;32;33869;-67
2023/06/06 12:17:32;;;;;;;11.32;8.00;;;;;;;18.85;100.00;100418.47;5566533;32;33773;-66
2023/06/06 12:20:35;;;;;;;14.07;7.70;;;;;;;18.79;100.00;100408.59;5566882;32;34392;-67
2023/06/06 12:23:40;;;;;;;10.75;7.40;;;;;;;18.83;100.00;100404.47;5566887;32;33803;-66
2023/06/06 12:26:53;;;;;;;14.80;7.93;;;;;;;18.85;100.00;100402.34;5566454;32;34165;-66
2023/06/06 12:29:57;;;;;;;10.15;7.15;;;;;;;18.98;100.00;100411.09;5566826;32;33760;-66
2023/06/06 12:33:03;;;;;;;8.77;6.72;;;;;;;19.22;100.00;100417.47;5565776;32;34065;-66
2023/06/06 12:36:20;;;;;;;13.75;6.75;;;;;;;19.22;100.00;100424.75;5583765;31;33752;-67
2023/06/06 12:39:23;;;;;;;10.10;6.95;;;;;;;19.43;100.00;100421.59;5585357;31;34434;-67
2023/06/06 12:42:27;;;;;;;11.07;6.80;;;;;;;19.60;100.00;100421.88;5586429;31;33731;-67
2023/06/06 12:45:29;;;;;;;10.30;7.18;;;;;;;19.61;100.00;100418.09;5585997;31;32609;-67
2023/06/06 12:48:33;;;;;;;14.38;7.43;;;;;;;19.44;100.00;100420.59;5579794;31;34527;-66
2023/06/06 12:51:39;;;;;;;9.30;7.50;;;;;;;19.37;100.00;100414.44;5575117;31;34340;-68
2023/06/06 12:54:42;;;;;;;11.27;6.97;;;;;;;19.34;100.00;100426.47;5586397;31;33618;-67
2023/06/06 12:57:45;;;;;;;11.65;7.62;;;;;;;19.36;100.00;100423.56;5574154;31;33142;-68
2023/06/06 13:00:49;;;;;;;12.82;7.97;;;;;;;19.52;100.00;100417.59;5575028;31;33838;-67
2023/06/06 13:03:52;;;;;;;13.15;7.40;;;;;;;19.48;100.00;100408.34;5566528;32;34048;-68
2023/06/06 13:06:55;;;;;;;9.93;7.50;;;;;;;19.49;100.00;100415.38;5566509;32;33590;-67
2023/06/06 13:09:59;;;;;;;12.15;8.02;;;;;;;19.34;100.00;100420.28;5565135;32;33898;-69
2023/06/06 13:13:02;;;;;;;11.88;8.50;;;;;;;19.20;100.00;100421.47;5566152;32;33536;-68
2023/06/06 13:16:09;;;;;;;14.90;8.55;;;;;;;19.21;100.00;100421.25;5569298;31;33883;-67
2023/06/06 13:19:13;;;;;;;12.45;8.13;;;;;;;19.28;100.00;100413.09;5576942;31;34427;-68
2023/06/06 13:22:18;;;;;;;11.82;8.20;;;;;;;19.50;100.00;100425.91;5572635;31;34656;-68
2023/06/06 13:25:21;;;;;;;12.98;8.18;;;;;;;19.59;100.00;100417.53;5582034;31;33628;-67
2023/06/06 13:28:25;;;;;;;12.88;7.87;;;;;;;19.78;100.00;100413.78;5578959;31;33604;-67
2023/06/06 13:31:28;;;;;;;14.13;8.15;;;;;;;19.89;100.00;100415.69;5579357;31;33836;-67
2023/06/06 13:34:31;;;;;;;10.20;8.00;;;;;;;19.86;100.00;100416.97;5581447;31;33787;-68
2023/06/06 13:37:34;;;;;;;12.88;8.07;;;;;;;20.00;100.00;100414.09;5574815;31;32535;-67
2023/06/06 13:40:37;;;;;;;9.65;7.70;;;;;;;19.98;100.00;100413.50;5573696;31;34078;-67
2023/06/06 13:43:42;;;;;;;13.10;8.20;;;;;;;19.91;100.00;100408.19;5575014;31;33732;-66
2023/06/06 13:46:46;;;;;;;11.95;7.95;;;;;;;20.15;100.00;100406.41;5565412;31;34302;-67
2023/06/06 13:50:03;;;;;;;12.93;7.70;;;;;;;20.11;100.00;100407.94;5572272;31;33949;-67
2023/06/06 13:53:07;;;;;;;11.93;8.55;;;;;;;20.24;100.00;100400.47;5572813;31;32760;-67
2023/06/06 13:56:10;;;;;;;16.15;8.63;;;;;;;20.13;100.00;100392.38;5579847;31;34206;-67
2023/06/06 13:59:15;;;;;;;11.80;7.40;;;;;;;20.10;100.00;100404.41;5574202;31;33859;-67